createdAt,value
2023-03-16T00:01:26.837Z,12.70
2023-03-16T00:03:53.604Z,11.85
2023-03-16T00:06:20.348Z,12.85
2023-03-16T00:08:47.566Z,11.52
2023-03-16T00:11:14.199Z,11.55
2023-03-16T00:13:42.872Z,10.50
2023-03-16T00:16:09.903Z,12.07
2023-03-16T00:18:39.263Z,11.18
2023-03-16T00:21:06.785Z,11.18
2023-03-16T00:23:35.710Z,11.23
2023-03-16T00:26:06.883Z,11.70
2023-03-16T00:28:35.185Z,11.15
2023-03-16T00:31:06.181Z,12.43
2023-03-16T00:33:34.901Z,11.98
2023-03-16T00:36:02.758Z,11.82
2023-03-16T00:38:36.731Z,6.70
2023-03-16T00:41:04.647Z,10.50
2023-03-16T00:43:32.315Z,10.23
2023-03-16T00:46:01.362Z,10.88
2023-03-16T00:48:28.473Z,10.50
2023-03-16T00:50:55.239Z,10.23
2023-03-16T00:53:22.317Z,10.32
2023-03-16T00:55:49.072Z,9.90
2023-03-16T00:58:16.257Z,9.50
2023-03-16T01:00:43.661Z,10.45
2023-03-16T01:03:10.937Z,10.45
2023-03-16T01:05:41.916Z,10.18
2023-03-16T01:08:09.117Z,10.75
2023-03-16T01:10:36.255Z,11.45
2023-03-16T01:13:03.176Z,11.50
2023-03-16T01:15:34.824Z,11.05
2023-03-16T01:18:01.966Z,12.30
2023-03-16T01:20:29.003Z,12.20
2023-03-16T01:22:55.930Z,11.95
2023-03-16T01:25:24.261Z,12.38
2023-03-16T01:27:51.103Z,12.00
2023-03-16T01:30:17.865Z,13.02
2023-03-16T01:32:44.799Z,12.63
2023-03-16T01:35:13.936Z,13.75
2023-03-16T01:37:41.511Z,13.70
2023-03-16T01:40:22.415Z,7.00
2023-03-16T01:42:58.943Z,6.72
2023-03-16T01:45:44.349Z,10.98
2023-03-16T01:48:11.448Z,9.50
2023-03-16T01:50:38.559Z,10.60
2023-03-16T01:53:05.446Z,10.38
2023-03-16T01:55:32.541Z,6.43
2023-03-16T01:57:59.544Z,7.60
2023-03-16T02:00:31.664Z,10.48
2023-03-16T02:03:07.343Z,10.52
2023-03-16T02:05:52.720Z,10.85
2023-03-16T02:08:22.994Z,6.55
2023-03-16T02:10:49.872Z,7.22
2023-03-16T02:13:16.841Z,12.05
2023-03-16T02:15:45.240Z,12.05
2023-03-16T02:18:12.073Z,6.78
2023-03-16T02:21:02.455Z,12.05
2023-03-16T02:23:29.781Z,11.80
2023-03-16T02:26:15.037Z,11.50
2023-03-16T02:29:08.676Z,11.02
2023-03-16T02:31:35.588Z,10.88
2023-03-16T02:34:03.485Z,6.53
2023-03-16T02:36:30.703Z,6.47
2023-03-16T02:38:57.455Z,6.28
2023-03-16T02:41:24.771Z,10.45
2023-03-16T02:43:58.356Z,7.28
2023-03-16T02:46:35.862Z,9.95
2023-03-16T02:49:21.870Z,10.30
2023-03-16T02:51:48.672Z,6.78
2023-03-16T02:54:15.913Z,7.00
2023-03-16T02:56:42.758Z,12.00
2023-03-16T02:59:12.381Z,7.38
2023-03-16T03:01:39.690Z,7.43
2023-03-16T03:04:06.927Z,6.70
2023-03-16T03:06:34.195Z,7.00
2023-03-16T03:09:02.122Z,6.93
2023-03-16T03:11:29.500Z,7.57
2023-03-16T03:13:56.860Z,7.32
2023-03-16T03:16:26.710Z,8.85
2023-03-16T03:18:55.671Z,8.35
2023-03-16T03:21:23.896Z,7.95
2023-03-16T03:23:50.769Z,13.10
2023-03-16T03:26:17.913Z,8.77
2023-03-16T03:28:45.882Z,7.53
2023-03-16T03:31:14.834Z,7.55
2023-03-16T03:33:41.894Z,7.05
2023-03-16T03:36:08.844Z,7.28
2023-03-16T03:38:37.417Z,7.28
2023-03-16T03:41:08.411Z,7.50
2023-03-16T03:43:37.584Z,7.38
2023-03-16T03:46:05.635Z,7.53
2023-03-16T03:48:34.134Z,11.95
2023-03-16T03:51:01.410Z,7.55
2023-03-16T03:53:31.210Z,6.55
2023-03-16T03:56:17.172Z,6.60
2023-03-16T03:58:44.227Z,7.35
2023-03-16T04:01:14.419Z,13.00
2023-03-16T04:03:43.477Z,13.00
2023-03-16T04:06:13.064Z,13.48
2023-03-16T04:08:39.937Z,13.38
2023-03-16T04:11:10.155Z,7.70
2023-03-16T04:13:36.994Z,7.10
2023-03-16T04:16:03.918Z,8.48
2023-03-16T04:18:43.706Z,8.57
2023-03-16T04:21:13.872Z,14.50
2023-03-16T04:23:42.548Z,8.85
2023-03-16T04:26:09.611Z,7.68
2023-03-16T04:28:38.260Z,7.85
2023-03-16T04:31:07.215Z,9.15
2023-03-16T04:36:34.119Z,8.60
2023-03-16T04:39:02.301Z,9.85
2023-03-16T04:41:29.034Z,9.85
2023-03-16T04:44:05.884Z,10.32
2023-03-16T04:46:36.226Z,9.35
2023-03-16T04:49:09.711Z,10.95
2023-03-16T04:51:40.819Z,11.18
2023-03-16T04:54:11.439Z,9.13
2023-03-16T04:56:55.823Z,9.73
2023-03-16T04:59:32.075Z,8.85
2023-03-16T05:02:50.380Z,9.05
2023-03-16T05:05:21.619Z,9.95
2023-03-16T05:07:49.720Z,9.45
2023-03-16T05:11:05.169Z,11.05
2023-03-16T05:22:03.309Z,10.07
2023-03-16T05:29:59.724Z,9.10
2023-03-16T05:44:15.687Z,8.07
2023-03-16T05:47:02.463Z,9.40
2023-03-16T05:49:31.428Z,9.20
2023-03-16T05:52:00.830Z,9.50
2023-03-16T05:54:28.464Z,13.60
2023-03-16T05:56:55.763Z,12.40
2023-03-16T05:59:22.762Z,12.93
2023-03-16T06:01:54.125Z,7.35
2023-03-16T06:04:22.153Z,6.13
2023-03-16T06:06:49.627Z,10.38
2023-03-16T06:09:20.939Z,11.52
2023-03-16T06:11:47.787Z,10.25
2023-03-16T06:14:16.778Z,10.52
2023-03-16T06:16:44.658Z,10.60
2023-03-16T06:19:13.612Z,9.10
2023-03-16T06:21:41.535Z,9.98
2023-03-16T06:24:10.812Z,8.50
2023-03-16T06:26:38.152Z,8.52
2023-03-16T06:29:07.592Z,8.15
2023-03-16T06:31:36.981Z,8.88
2023-03-16T06:34:04.887Z,7.50
2023-03-16T06:36:32.589Z,8.13
2023-03-16T06:39:05.760Z,8.25
2023-03-16T06:41:45.767Z,7.85
2023-03-16T06:44:15.287Z,9.50
2023-03-16T06:46:52.862Z,6.72
2023-03-16T06:49:19.976Z,6.30
2023-03-16T06:51:46.766Z,7.63
2023-03-16T06:54:14.050Z,6.28
2023-03-16T06:56:41.566Z,5.63
2023-03-16T06:59:10.768Z,5.20
2023-03-16T07:01:37.666Z,5.38
2023-03-16T07:04:04.449Z,4.68
2023-03-16T07:06:32.807Z,5.15
2023-03-16T07:09:01.400Z,4.68
2023-03-16T07:11:30.666Z,5.05
2023-03-16T07:13:58.667Z,6.20
2023-03-16T07:16:27.696Z,5.63
2023-03-16T07:18:58.387Z,4.65
2023-03-16T07:21:25.365Z,4.70
2023-03-16T07:23:55.769Z,4.90
2023-03-16T07:26:25.831Z,5.53
2023-03-16T07:28:58.068Z,5.25
2023-03-16T07:31:25.437Z,5.10
2023-03-16T07:33:53.519Z,5.43
2023-03-16T07:36:30.031Z,4.97
2023-03-16T07:39:00.216Z,5.40
2023-03-16T07:41:27.225Z,5.22
2023-03-16T07:44:07.565Z,5.20
2023-03-16T07:46:34.382Z,4.78
2023-03-16T07:49:01.467Z,5.43
2023-03-16T07:51:28.680Z,5.75
2023-03-16T07:53:55.517Z,4.90
2023-03-16T07:56:33.668Z,4.70
2023-03-16T07:59:07.484Z,4.30
2023-03-16T08:01:34.574Z,3.75
2023-03-16T08:04:01.613Z,4.75
2023-03-16T08:06:28.721Z,4.50
2023-03-16T08:08:55.504Z,4.43
2023-03-16T08:11:29.546Z,3.50
2023-03-16T08:14:00.057Z,4.57
2023-03-16T08:16:46.003Z,4.85
2023-03-16T08:19:13.321Z,4.22
2023-03-16T08:21:59.749Z,4.95
2023-03-16T08:24:29.597Z,5.10
2023-03-16T08:26:57.861Z,4.85
2023-03-16T08:29:25.680Z,4.75
2023-03-16T08:31:54.263Z,4.43
2023-03-16T08:34:28.982Z,4.43
2023-03-16T08:36:57.078Z,4.65
2023-03-16T08:39:24.885Z,4.90
2023-03-16T08:41:52.282Z,4.70
2023-03-16T08:44:28.943Z,4.68
2023-03-16T08:46:56.128Z,4.78
2023-03-16T08:49:24.225Z,5.10
2023-03-16T08:52:00.819Z,4.60
2023-03-16T08:54:28.334Z,4.25
2023-03-16T08:57:03.682Z,4.57
2023-03-16T08:59:31.453Z,5.50
2023-03-16T09:01:59.143Z,5.18
2023-03-16T09:04:26.701Z,4.65
2023-03-16T09:07:10.002Z,4.70
2023-03-16T09:09:37.213Z,5.03
2023-03-16T09:12:04.602Z,5.35
2023-03-16T09:14:31.833Z,5.18
2023-03-16T09:16:59.533Z,4.88
2023-03-16T09:19:27.096Z,5.40
2023-03-16T09:21:54.186Z,5.40
2023-03-16T09:24:21.516Z,5.72
2023-03-16T09:26:48.561Z,5.55
2023-03-16T09:29:15.616Z,5.45
2023-03-16T09:31:52.931Z,5.35
2023-03-16T09:34:19.997Z,5.90
2023-03-16T09:36:47.315Z,7.68
2023-03-16T09:39:14.512Z,5.68
2023-03-16T09:41:49.910Z,5.90
2023-03-16T09:44:46.339Z,6.28
2023-03-16T09:47:13.730Z,5.70
2023-03-16T09:49:43.411Z,5.80
2023-03-16T09:52:22.907Z,5.95
2023-03-16T09:54:56.271Z,5.78
2023-03-16T09:57:26.541Z,5.75
2023-03-16T09:59:55.068Z,5.40
2023-03-16T10:02:37.906Z,5.88
2023-03-16T10:05:16.012Z,5.18
2023-03-16T10:08:02.009Z,4.45
2023-03-16T10:10:33.374Z,4.65
2023-03-16T10:13:00.817Z,5.28
2023-03-16T10:15:29.779Z,5.15
2023-03-16T10:17:56.582Z,4.88
2023-03-16T10:20:24.091Z,4.35
2023-03-16T10:22:52.577Z,4.22
2023-03-16T10:25:22.195Z,3.92
2023-03-16T10:27:49.399Z,4.15
2023-03-16T10:30:28.679Z,4.13
2023-03-16T10:32:57.748Z,4.53
2023-03-16T10:36:01.500Z,4.22
2023-03-16T10:38:28.371Z,4.13
2023-03-16T10:40:57.879Z,4.18
2023-03-16T10:43:25.228Z,4.20
2023-03-16T10:45:52.147Z,4.97
2023-03-16T10:48:20.543Z,4.10
2023-03-16T10:50:58.706Z,4.40
2023-03-16T10:53:31.809Z,4.57
2023-03-16T10:56:00.127Z,4.50
2023-03-16T10:58:30.810Z,5.85
2023-03-16T11:00:58.939Z,4.32
2023-03-16T11:03:28.905Z,3.38
2023-03-16T11:06:02.832Z,2.63
2023-03-16T11:11:00.844Z,3.28
2023-03-16T11:13:34.909Z,3.17
2023-03-16T11:16:05.390Z,3.38
2023-03-16T11:18:35.851Z,2.80
2023-03-16T11:21:22.817Z,2.90
2023-03-16T11:23:52.790Z,2.95
2023-03-16T11:26:22.785Z,2.80
2023-03-16T11:28:56.455Z,3.58
2023-03-16T11:31:40.521Z,3.28
2023-03-16T11:34:14.638Z,2.80
2023-03-16T11:36:53.527Z,3.20
2023-03-16T11:39:28.018Z,2.83
2023-03-16T11:42:27.276Z,3.08
2023-03-16T11:45:10.158Z,2.40
2023-03-16T11:47:43.774Z,2.47
2023-03-16T11:50:25.900Z,2.65
2023-03-16T11:53:06.372Z,2.75
2023-03-16T11:55:42.234Z,2.45
2023-03-16T11:58:28.502Z,3.08
2023-03-16T12:01:08.685Z,2.90
2023-03-16T12:04:02.114Z,3.42
2023-03-16T12:06:32.520Z,2.90
2023-03-16T12:09:15.611Z,3.30
2023-03-16T12:12:02.024Z,3.03
2023-03-16T12:14:28.778Z,3.55
2023-03-16T12:17:21.722Z,3.40
2023-03-16T12:19:55.160Z,3.88
2023-03-16T12:24:50.419Z,3.75
2023-03-16T12:27:19.248Z,3.67
2023-03-16T12:29:48.799Z,3.65
2023-03-16T12:32:21.733Z,3.58
2023-03-16T12:34:53.380Z,3.70
2023-03-16T12:37:43.626Z,3.35
2023-03-16T12:40:29.950Z,4.00
2023-03-16T12:43:10.809Z,3.67
2023-03-16T12:45:37.700Z,3.60
2023-03-16T12:48:14.398Z,3.90
2023-03-16T12:50:58.628Z,4.00
2023-03-16T12:55:53.845Z,3.88
2023-03-16T12:58:23.074Z,4.30
2023-03-16T13:00:57.882Z,3.55
2023-03-16T13:03:25.698Z,3.90
2023-03-16T13:05:54.894Z,3.55
2023-03-16T13:08:22.894Z,3.97
2023-03-16T13:11:04.500Z,3.67
2023-03-16T13:13:32.830Z,3.50
2023-03-16T13:16:05.871Z,3.58
2023-03-16T13:18:45.125Z,3.80
2023-03-16T13:21:17.783Z,3.80
2023-03-16T13:23:59.471Z,4.60
2023-03-16T13:26:45.342Z,3.97
2023-03-16T13:29:19.750Z,4.35
2023-03-16T13:31:47.271Z,4.00
2023-03-16T13:34:29.757Z,3.90
2023-03-16T13:36:58.092Z,4.10
2023-03-16T13:39:28.891Z,3.67
2023-03-16T13:42:00.178Z,4.93
2023-03-16T13:44:27.491Z,3.53
2023-03-16T13:46:54.806Z,3.80
2023-03-16T13:49:21.810Z,4.13
2023-03-16T13:51:49.625Z,3.90
2023-03-16T13:54:23.614Z,3.95
2023-03-16T13:56:51.677Z,4.28
2023-03-16T13:59:18.726Z,5.47
2023-03-16T14:01:46.110Z,3.83
2023-03-16T14:04:15.935Z,4.03
2023-03-16T14:06:51.457Z,4.05
2023-03-16T14:09:21.816Z,4.43
2023-03-16T14:11:48.851Z,3.58
2023-03-16T14:14:16.706Z,3.90
2023-03-16T14:16:44.230Z,4.22
2023-03-16T14:19:19.382Z,4.93
2023-03-16T14:21:46.771Z,3.60
2023-03-16T14:24:21.098Z,3.95
2023-03-16T14:26:48.687Z,3.83
2023-03-16T14:29:27.566Z,3.47
2023-03-16T14:31:54.862Z,4.15
2023-03-16T14:34:41.593Z,4.00
2023-03-16T14:37:10.421Z,5.10
2023-03-16T14:39:37.893Z,4.30
2023-03-16T14:42:05.424Z,5.10
2023-03-16T14:44:34.533Z,3.97
2023-03-16T14:47:02.251Z,3.88
2023-03-16T14:49:41.479Z,4.45
2023-03-16T14:52:52.460Z,3.72
2023-03-16T14:55:20.241Z,3.88
2023-03-16T14:57:47.408Z,3.92
2023-03-16T15:00:18.776Z,4.25
2023-03-16T15:03:00.063Z,4.22
2023-03-16T15:05:31.643Z,4.57
2023-03-16T15:08:07.903Z,4.22
2023-03-16T15:10:45.435Z,4.90
2023-03-16T15:13:34.710Z,4.25
2023-03-16T15:16:05.742Z,4.63
2023-03-16T15:18:33.633Z,4.28
2023-03-16T15:21:11.237Z,4.80
2023-03-16T15:23:43.008Z,4.60
2023-03-16T15:26:13.183Z,4.40
2023-03-16T15:28:43.027Z,4.47
2023-03-16T15:31:14.589Z,4.95
2023-03-16T15:33:42.235Z,4.40
2023-03-16T15:36:17.048Z,4.72
2023-03-16T15:38:48.501Z,4.82
2023-03-16T15:41:16.234Z,5.30
2023-03-16T15:43:45.684Z,4.57
2023-03-16T15:46:13.181Z,4.43
2023-03-16T15:48:40.445Z,4.97
2023-03-16T15:51:08.913Z,4.70
2023-03-16T15:53:36.140Z,4.65
2023-03-16T15:56:04.571Z,5.20
2023-03-16T15:58:32.629Z,6.45
2023-03-16T16:01:00.634Z,5.10
2023-03-16T16:03:28.316Z,4.95
2023-03-16T16:05:55.814Z,4.88
2023-03-16T16:08:23.330Z,6.10
2023-03-16T16:10:51.645Z,5.10
2023-03-16T16:13:43.060Z,5.93
2023-03-16T16:16:14.989Z,5.32
2023-03-16T16:18:42.474Z,6.07
2023-03-16T16:21:18.666Z,5.00
2023-03-16T16:23:46.066Z,6.20
2023-03-16T16:26:21.622Z,5.40
2023-03-16T16:28:48.773Z,7.32
2023-03-16T16:31:17.276Z,6.20
2023-03-16T16:33:44.039Z,5.90
2023-03-16T16:36:14.398Z,6.53
2023-03-16T16:38:41.861Z,5.63
2023-03-16T16:41:09.359Z,5.80
2023-03-16T16:43:41.553Z,5.82
2023-03-16T16:46:16.726Z,6.43
2023-03-16T16:48:51.523Z,7.40
2023-03-16T16:51:19.091Z,6.13
2023-03-16T16:53:47.307Z,6.97
2023-03-16T16:56:16.238Z,7.13
2023-03-16T16:58:43.829Z,7.60
2023-03-16T17:01:15.820Z,7.40
2023-03-16T17:03:43.098Z,6.95
2023-03-16T17:06:16.877Z,6.28
2023-03-16T17:08:44.326Z,6.40
2023-03-16T17:11:17.066Z,6.32
2023-03-16T17:13:46.859Z,7.10
2023-03-16T17:16:18.663Z,6.50
2023-03-16T17:18:45.896Z,7.05
2023-03-16T17:21:14.728Z,7.13
2023-03-16T17:23:41.973Z,6.47
2023-03-16T17:26:12.711Z,6.75
2023-03-16T17:28:41.835Z,6.68
2023-03-16T17:31:10.713Z,6.45
2023-03-16T17:33:37.657Z,7.03
2023-03-16T17:36:04.560Z,7.60
2023-03-16T17:38:32.717Z,9.10
2023-03-16T17:41:00.263Z,8.30
2023-03-16T17:43:29.057Z,7.20
2023-03-16T17:45:56.459Z,7.57
2023-03-16T17:48:26.842Z,7.82
2023-03-16T17:50:53.537Z,7.72
2023-03-16T17:53:21.720Z,8.00
2023-03-16T17:55:48.698Z,8.30
2023-03-16T17:58:24.067Z,7.30
2023-03-16T18:00:51.030Z,7.15
2023-03-16T18:03:18.050Z,9.27
2023-03-16T18:05:45.070Z,10.20
2023-03-16T18:08:37.819Z,11.45
2023-03-16T18:11:07.155Z,11.93
2023-03-16T18:13:35.435Z,11.00
2023-03-16T18:16:03.615Z,9.23
2023-03-16T18:18:32.789Z,8.73
2023-03-16T18:21:00.570Z,8.65
2023-03-16T18:23:29.806Z,7.15
2023-03-16T18:26:01.180Z,8.10
2023-03-16T18:28:28.824Z,7.15
2023-03-16T18:30:55.766Z,7.55
2023-03-16T18:33:28.668Z,7.40
2023-03-16T18:36:01.362Z,6.53
2023-03-16T18:38:31.312Z,7.05
2023-03-16T18:40:58.743Z,7.03
2023-03-16T18:43:27.314Z,6.53
2023-03-16T18:45:55.116Z,6.05
2023-03-16T18:48:30.006Z,7.20
2023-03-16T18:50:57.052Z,8.80
2023-03-16T18:53:24.263Z,10.68
2023-03-16T18:55:51.943Z,10.52
2023-03-16T18:58:20.742Z,13.30
2023-03-16T19:01:01.066Z,14.68
2023-03-16T19:03:29.898Z,12.65
2023-03-16T19:05:57.834Z,10.85
2023-03-16T19:08:33.791Z,8.82
2023-03-16T19:11:01.441Z,8.32
2023-03-16T19:13:28.470Z,7.43
2023-03-16T19:15:57.447Z,6.90
2023-03-16T19:18:26.329Z,5.72
2023-03-16T19:20:54.368Z,5.30
2023-03-16T19:23:24.420Z,5.60
2023-03-16T19:25:51.630Z,4.82
2023-03-16T19:28:24.478Z,4.57
2023-03-16T19:30:51.597Z,3.90
2023-03-16T19:33:28.150Z,4.18
2023-03-16T19:35:55.676Z,4.40
2023-03-16T19:38:24.064Z,4.18
2023-03-16T19:40:58.661Z,4.30
2023-03-16T19:43:26.654Z,3.75
2023-03-16T19:45:54.936Z,3.53
2023-03-16T19:48:28.088Z,3.78
2023-03-16T19:50:55.041Z,3.22
2023-03-16T19:53:23.237Z,3.47
2023-03-16T19:55:51.887Z,3.28
2023-03-16T19:58:36.178Z,2.88
2023-03-16T20:01:03.349Z,3.42
2023-03-16T20:03:31.927Z,3.22
2023-03-16T20:05:58.918Z,3.38
2023-03-16T20:08:26.891Z,2.92
2023-03-16T20:10:59.436Z,4.45
2023-03-16T20:13:26.334Z,3.25
2023-03-16T20:15:53.521Z,2.70
2023-03-16T20:18:20.435Z,3.00
2023-03-16T20:20:47.577Z,2.72
2023-03-16T20:23:18.826Z,2.70
2023-03-16T20:25:46.679Z,2.83
2023-03-16T20:28:20.432Z,2.63
2023-03-16T20:30:47.825Z,2.65
2023-03-16T20:33:19.519Z,2.90
2023-03-16T20:35:46.997Z,2.63
2023-03-16T20:38:14.733Z,2.38
2023-03-16T20:40:42.711Z,2.50
2023-03-16T20:43:35.559Z,2.42
2023-03-16T20:46:03.900Z,2.47
2023-03-16T20:48:31.076Z,2.25
2023-03-16T20:51:00.100Z,2.53
2023-03-16T20:53:27.752Z,2.45
2023-03-16T20:55:55.129Z,2.42
2023-03-16T20:58:26.120Z,2.90
2023-03-16T21:00:57.604Z,2.35
2023-03-16T21:03:26.293Z,2.45
2023-03-16T21:05:53.591Z,2.30
2023-03-16T21:08:20.263Z,2.22
2023-03-16T21:10:48.212Z,2.28
2023-03-16T21:13:18.026Z,2.75
2023-03-16T21:15:45.314Z,2.60
2023-03-16T21:18:18.417Z,2.42
2023-03-16T21:20:45.668Z,2.83
2023-03-16T21:23:17.946Z,2.47
2023-03-16T21:25:46.800Z,2.60
2023-03-16T21:28:14.076Z,2.97
2023-03-16T21:30:45.378Z,2.83
2023-03-16T21:33:16.953Z,2.42
2023-03-16T21:35:43.755Z,2.72
2023-03-16T21:38:13.078Z,3.08
2023-03-16T21:40:39.977Z,2.63
2023-03-16T21:43:07.597Z,3.15
2023-03-16T21:45:36.040Z,2.97
2023-03-16T21:48:03.175Z,3.17
2023-03-16T21:50:34.394Z,3.15
2023-03-16T21:53:02.414Z,3.70
2023-03-16T21:55:30.079Z,3.95
2023-03-16T21:57:58.737Z,3.50
2023-03-16T22:00:27.001Z,3.63
2023-03-16T22:02:55.067Z,3.38
2023-03-16T22:05:28.230Z,3.45
2023-03-16T22:07:56.676Z,3.03
2023-03-16T22:10:25.898Z,3.55
2023-03-16T22:12:53.045Z,3.75
2023-03-16T22:15:28.403Z,3.30
2023-03-16T22:19:00.707Z,3.70
2023-03-16T22:21:37.656Z,4.07
2023-03-16T22:24:06.082Z,4.50
2023-03-16T22:26:33.251Z,5.30
2023-03-16T22:38:29.472Z,3.95
2023-03-16T22:40:56.322Z,4.30
2023-03-16T22:43:28.252Z,4.05
2023-03-16T22:45:56.931Z,4.50
2023-03-16T22:48:36.644Z,4.60
2023-03-16T23:03:26.171Z,3.13
2023-03-16T23:06:21.393Z,4.88
2023-03-16T23:09:12.667Z,4.30
2023-03-16T23:18:35.247Z,5.78
2023-03-16T23:21:04.342Z,2.72
2023-03-16T23:46:41.241Z,8.15
